Terminal Aerodrome Forecast
Issued by NWS

Home | Current Version | Previous Version | Text Only | Print | Product List | Glossary On
Versions: 1 2 3 4 5 6 7 8 9 10 11 12 13 14
000
FTPA31 PHFO 191736
TAFHMK
TAF
PHMK 191736Z 1918/2018 35005KT P6SM VCSH SCT025 BKN050
      TEMPO 1918/1919 4SM SHRA BR BKN025
     FM192000 34012G19KT P6SM VCSH SCT025 BKN050
     FM192200 34012G19KT P6SM FEW025 SCT050
     FM200400 35008KT P6SM FEW025 SCT050
     FM201400 35007KT P6SM VCSH SCT025 SCT050=

USA.gov is the U.S. government's official web portal to all federal, state and local government web resources and services.